Heinsburg, Canada
Current Conditions -  °F | °C
As of 6:00 AM on Thursday 23 Oct 2014 (Local Time) from CYLL Reporting Station
Scattered Clouds Scattered Clouds  
Wind Chill: 34°   Ceiling: Unl
Heat Index: 39°   Visibility: 9mi
Dew Point: 34°   Wind: 8mph
Humidity: 81%   Direction: 140°SE
Pressure: 29.52"   Gusts: NA
Location:  53.77°N, 110.52°W
Report Text: CYLL 231200Z AUTO 14007KT 9SM SCT140 04/01 A2952 RMK SLP015
Loading
Personal Weather Stations






























Interactive Weather Map
Tropical Storm Tracking
New forecast layout! Learn more

10-Day Weather Forecast

Advertisements
Track Severe Weather on mobile